sensor_id;sensor_type;location;lat;lon;timestamp;pressure;altitude;pressure_sealevel;temperature;humidity
10832;BME280;5469;48.574;8.768;2023-04-08T00:00:54;95048.56;;;10.11;nan
10832;BME280;5469;48.574;8.768;2023-04-08T00:03:27;95050.38;;;9.79;nan
10832;BME280;5469;48.574;8.768;2023-04-08T00:06:01;95046.66;;;9.75;nan
10832;BME280;5469;48.574;8.768;2023-04-08T00:08:35;95050.34;;;9.64;nan
10832;BME280;5469;48.574;8.768;2023-04-08T00:11:09;95042.72;;;9.88;nan
10832;BME280;5469;48.574;8.768;2023-04-08T00:13:42;95050.13;;;9.81;nan
10832;BME280;5469;48.574;8.768;2023-04-08T00:16:17;95045.38;;;10.09;nan
10832;BME280;5469;48.574;8.768;2023-04-08T00:18:50;95056.50;;;10.05;nan
10832;BME280;5469;48.574;8.768;2023-04-08T00:21:24;95051.22;;;10.05;nan
10832;BME280;5469;48.574;8.768;2023-04-08T00:23:58;95056.53;;;10.11;nan
10832;BME280;5469;48.574;8.768;2023-04-08T00:26:31;95055.47;;;10.01;nan
10832;BME280;5469;48.574;8.768;2023-04-08T00:29:04;95050.88;;;9.71;nan
10832;BME280;5469;48.574;8.768;2023-04-08T00:31:39;95054.06;;;9.68;nan
10832;BME280;5469;48.574;8.768;2023-04-08T00:34:13;95064.69;;;9.78;nan
10832;BME280;5469;48.574;8.768;2023-04-08T00:36:46;95068.16;;;9.89;nan
10832;BME280;5469;48.574;8.768;2023-04-08T00:39:19;95061.28;;;10.09;nan
10832;BME280;5469;48.574;8.768;2023-04-08T00:41:53;95048.03;;;10.03;nan
10832;BME280;5469;48.574;8.768;2023-04-08T00:44:27;95059.72;;;10.13;nan
10832;BME280;5469;48.574;8.768;2023-04-08T00:47:02;95064.47;;;10.21;nan
10832;BME280;5469;48.574;8.768;2023-04-08T00:49:35;95057.31;;;10.16;nan
10832;BME280;5469;48.574;8.768;2023-04-08T00:52:09;95059.16;;;9.95;nan
10832;BME280;5469;48.574;8.768;2023-04-08T00:54:42;95074.00;;;10.17;nan
10832;BME280;5469;48.574;8.768;2023-04-08T00:57:16;95070.31;;;10.18;nan
10832;BME280;5469;48.574;8.768;2023-04-08T00:59:49;95069.78;;;10.16;nan
10832;BME280;5469;48.574;8.768;2023-04-08T01:02:30;95066.56;;;10.09;nan
10832;BME280;5469;48.574;8.768;2023-04-08T01:05:11;95062.34;;;10.13;nan
10832;BME280;5469;48.574;8.768;2023-04-08T01:07:47;95063.41;;;10.06;nan
10832;BME280;5469;48.574;8.768;2023-04-08T01:10:22;95060.75;;;10.01;nan
10832;BME280;5469;48.574;8.768;2023-04-08T01:13:03;95062.88;;;9.99;nan
10832;BME280;5469;48.574;8.768;2023-04-08T01:15:38;95051.75;;;10.02;nan
10832;BME280;5469;48.574;8.768;2023-04-08T01:18:14;95060.72;;;9.81;nan
10832;BME280;5469;48.574;8.768;2023-04-08T01:20:49;95060.19;;;9.84;nan
10832;BME280;5469;48.574;8.768;2023-04-08T01:23:32;95061.25;;;9.88;nan
10832;BME280;5469;48.574;8.768;2023-04-08T01:26:12;95054.75;;;9.43;nan
10832;BME280;5469;48.574;8.768;2023-04-08T01:28:56;95064.34;;;9.59;nan
10832;BME280;5469;48.574;8.768;2023-04-08T01:31:30;95057.16;;;9.39;nan
10832;BME280;5469;48.574;8.768;2023-04-08T01:34:04;95060.28;;;9.36;nan
10832;BME280;5469;48.574;8.768;2023-04-08T01:36:39;95064.81;;;9.41;nan
10832;BME280;5469;48.574;8.768;2023-04-08T01:39:14;95062.38;;;9.24;nan
10832;BME280;5469;48.574;8.768;2023-04-08T01:41:52;95060.53;;;9.30;nan
10832;BME280;5469;48.574;8.768;2023-04-08T01:44:27;95055.22;;;9.25;nan
10832;BME280;5469;48.574;8.768;2023-04-08T01:47:02;95060.06;;;9.43;nan
10832;BME280;5469;48.574;8.768;2023-04-08T01:49:36;95057.44;;;9.48;nan
10832;BME280;5469;48.574;8.768;2023-04-08T01:52:10;95057.38;;;9.38;nan
10832;BME280;5469;48.574;8.768;2023-04-08T01:54:44;95058.97;;;9.39;nan
10832;BME280;5469;48.574;8.768;2023-04-08T01:57:23;95063.81;;;9.52;nan
10832;BME280;5469;48.574;8.768;2023-04-08T02:00:00;95059.91;;;9.12;nan
10832;BME280;5469;48.574;8.768;2023-04-08T02:02:35;95048.38;;;9.39;nan
10832;BME280;5469;48.574;8.768;2023-04-08T02:05:10;95063.78;;;9.47;nan
10832;BME280;5469;48.574;8.768;2023-04-08T02:07:43;95059.00;;;9.49;nan
10832;BME280;5469;48.574;8.768;2023-04-08T02:10:17;95058.50;;;9.47;nan
10832;BME280;5469;48.574;8.768;2023-04-08T02:12:52;95054.19;;;9.36;nan
10832;BME280;5469;48.574;8.768;2023-04-08T02:15:28;95050.00;;;9.40;nan
10832;BME280;5469;48.574;8.768;2023-04-08T02:18:15;95053.22;;;9.52;nan
10832;BME280;5469;48.574;8.768;2023-04-08T02:20:56;95042.13;;;9.55;nan
10832;BME280;5469;48.574;8.768;2023-04-08T02:23:32;95050.56;;;9.47;nan
10832;BME280;5469;48.574;8.768;2023-04-08T02:26:12;95050.03;;;9.50;nan
10832;BME280;5469;48.574;8.768;2023-04-08T02:28:48;95058.22;;;9.49;nan
10832;BME280;5469;48.574;8.768;2023-04-08T02:31:23;95052.66;;;9.45;nan
10832;BME280;5469;48.574;8.768;2023-04-08T02:33:59;95051.63;;;9.51;nan
10832;BME280;5469;48.574;8.768;2023-04-08T02:36:33;95044.72;;;9.40;nan
10832;BME280;5469;48.574;8.768;2023-04-08T02:39:07;95050.25;;;9.44;nan
10832;BME280;5469;48.574;8.768;2023-04-08T02:41:40;95053.66;;;9.29;nan
10832;BME280;5469;48.574;8.768;2023-04-08T02:44:15;95040.06;;;9.10;nan
10832;BME280;5469;48.574;8.768;2023-04-08T02:46:48;95051.84;;;9.34;nan
10832;BME280;5469;48.574;8.768;2023-04-08T02:49:22;95048.38;;;9.39;nan
10832;BME280;5469;48.574;8.768;2023-04-08T02:51:55;95047.31;;;9.30;nan
10832;BME280;5469;48.574;8.768;2023-04-08T02:54:29;95057.94;;;9.45;nan
10832;BME280;5469;48.574;8.768;2023-04-08T02:57:08;95048.91;;;9.36;nan
10832;BME280;5469;48.574;8.768;2023-04-08T02:59:44;95057.94;;;9.40;nan
10832;BME280;5469;48.574;8.768;2023-04-08T03:02:18;95044.63;;;9.25;nan
10832;BME280;5469;48.574;8.768;2023-04-08T03:04:58;95054.25;;;9.46;nan
10832;BME280;5469;48.574;8.768;2023-04-08T03:07:33;95062.94;;;9.41;nan
10832;BME280;5469;48.574;8.768;2023-04-08T03:10:08;95064.50;;;9.27;nan
10832;BME280;5469;48.574;8.768;2023-04-08T03:12:41;95065.31;;;9.33;nan
10832;BME280;5469;48.574;8.768;2023-04-08T03:15:16;95067.34;;;9.21;nan
10832;BME280;5469;48.574;8.768;2023-04-08T03:17:52;95067.50;;;8.93;nan
10832;BME280;5469;48.574;8.768;2023-04-08T03:20:26;95061.28;;;8.72;nan
10832;BME280;5469;48.574;8.768;2023-04-08T03:22:59;95055.00;;;8.84;nan
10832;BME280;5469;48.574;8.768;2023-04-08T03:25:33;95057.25;;;9.07;nan
10832;BME280;5469;48.574;8.768;2023-04-08T03:28:08;95057.88;;;9.25;nan
10832;BME280;5469;48.574;8.768;2023-04-08T03:30:43;95053.03;;;9.11;nan
10832;BME280;5469;48.574;8.768;2023-04-08T03:33:16;95055.22;;;9.25;nan
10832;BME280;5469;48.574;8.768;2023-04-08T03:35:50;95055.25;;;9.30;nan
10832;BME280;5469;48.574;8.768;2023-04-08T03:38:23;95061.13;;;9.42;nan
10832;BME280;5469;48.574;8.768;2023-04-08T03:40:57;95053.88;;;9.22;nan
10832;BME280;5469;48.574;8.768;2023-04-08T03:43:30;95061.16;;;9.00;nan
10832;BME280;5469;48.574;8.768;2023-04-08T03:46:05;95061.97;;;9.00;nan
10832;BME280;5469;48.574;8.768;2023-04-08T03:48:39;95071.00;;;9.09;nan
10832;BME280;5469;48.574;8.768;2023-04-08T03:51:12;95075.03;;;8.74;nan
10832;BME280;5469;48.574;8.768;2023-04-08T03:53:45;95073.56;;;8.94;nan
10832;BME280;5469;48.574;8.768;2023-04-08T03:56:21;95078.94;;;9.09;nan
10832;BME280;5469;48.574;8.768;2023-04-08T03:58:56;95075.03;;;9.22;nan
10832;BME280;5469;48.574;8.768;2023-04-08T04:01:33;95069.41;;;9.03;nan
10832;BME280;5469;48.574;8.768;2023-04-08T04:04:06;95073.88;;;8.60;nan
10832;BME280;5469;48.574;8.768;2023-04-08T04:06:40;95070.34;;;7.90;nan
10832;BME280;5469;48.574;8.768;2023-04-08T04:09:13;95073.13;;;8.38;nan
10832;BME280;5469;48.574;8.768;2023-04-08T04:11:47;95065.59;;;8.89;nan
10832;BME280;5469;48.574;8.768;2023-04-08T04:14:21;95075.19;;;9.05;nan
10832;BME280;5469;48.574;8.768;2023-04-08T04:16:56;95071.34;;;8.75;nan
10832;BME280;5469;48.574;8.768;2023-04-08T04:19:29;95073.84;;;8.55;nan
10832;BME280;5469;48.574;8.768;2023-04-08T04:22:03;95078.28;;;8.87;nan
10832;BME280;5469;48.574;8.768;2023-04-08T04:24:36;95066.41;;;8.52;nan
10832;BME280;5469;48.574;8.768;2023-04-08T04:27:10;95078.88;;;8.57;nan
10832;BME280;5469;48.574;8.768;2023-04-08T04:29:43;95077.72;;;8.80;nan
10832;BME280;5469;48.574;8.768;2023-04-08T04:32:18;95079.66;;;9.00;nan
10832;BME280;5469;48.574;8.768;2023-04-08T04:34:51;95080.94;;;8.92;nan
10832;BME280;5469;48.574;8.768;2023-04-08T04:37:25;95085.16;;;8.88;nan
10832;BME280;5469;48.574;8.768;2023-04-08T04:39:58;95078.84;;;8.94;nan
10832;BME280;5469;48.574;8.768;2023-04-08T04:42:32;95080.44;;;8.90;nan
10832;BME280;5469;48.574;8.768;2023-04-08T04:45:06;95087.22;;;8.81;nan
10832;BME280;5469;48.574;8.768;2023-04-08T04:47:41;95088.88;;;8.92;nan
10832;BME280;5469;48.574;8.768;2023-04-08T04:50:15;95092.63;;;8.96;nan
10832;BME280;5469;48.574;8.768;2023-04-08T04:52:48;95093.69;;;9.00;nan
10832;BME280;5469;48.574;8.768;2023-04-08T04:55:22;95085.44;;;8.91;nan
10832;BME280;5469;48.574;8.768;2023-04-08T04:57:55;95095.81;;;8.98;nan
10832;BME280;5469;48.574;8.768;2023-04-08T05:00:29;95101.59;;;8.95;nan
10832;BME280;5469;48.574;8.768;2023-04-08T05:03:03;95097.91;;;8.96;nan
10832;BME280;5469;48.574;8.768;2023-04-08T05:05:37;95096.84;;;8.97;nan
10832;BME280;5469;48.574;8.768;2023-04-08T05:08:10;95102.63;;;8.94;nan
10832;BME280;5469;48.574;8.768;2023-04-08T05:10:44;95098.53;;;9.13;nan
10832;BME280;5469;48.574;8.768;2023-04-08T05:13:17;95099.59;;;9.17;nan
10832;BME280;5469;48.574;8.768;2023-04-08T05:15:51;95103.78;;;9.03;nan
10832;BME280;5469;48.574;8.768;2023-04-08T05:18:25;95101.53;;;8.85;nan
10832;BME280;5469;48.574;8.768;2023-04-08T05:21:02;95108.59;;;9.16;nan
10832;BME280;5469;48.574;8.768;2023-04-08T05:23:35;95105.41;;;9.14;nan
10832;BME280;5469;48.574;8.768;2023-04-08T05:26:10;95103.78;;;9.03;nan
10832;BME280;5469;48.574;8.768;2023-04-08T05:28:43;95104.97;;;8.85;nan
10832;BME280;5469;48.574;8.768;2023-04-08T05:31:17;95104.78;;;8.97;nan
10832;BME280;5469;48.574;8.768;2023-04-08T05:33:53;95110.38;;;9.01;nan
10832;BME280;5469;48.574;8.768;2023-04-08T05:36:26;95108.03;;;9.09;nan
10832;BME280;5469;48.574;8.768;2023-04-08T05:38:59;95115.41;;;9.07;nan
10832;BME280;5469;48.574;8.768;2023-04-08T05:41:33;95120.00;;;9.22;nan
10832;BME280;5469;48.574;8.768;2023-04-08T05:44:07;95115.94;;;9.04;nan
10832;BME280;5469;48.574;8.768;2023-04-08T05:46:43;95116.97;;;8.98;nan
10832;BME280;5469;48.574;8.768;2023-04-08T05:49:18;95114.56;;;8.32;nan
10832;BME280;5469;48.574;8.768;2023-04-08T05:51:55;95121.50;;;8.70;nan
10832;BME280;5469;48.574;8.768;2023-04-08T05:54:28;95121.16;;;8.94;nan
10832;BME280;5469;48.574;8.768;2023-04-08T05:57:02;95128.69;;;9.17;nan
10832;BME280;5469;48.574;8.768;2023-04-08T05:59:35;95124.47;;;9.16;nan
10832;BME280;5469;48.574;8.768;2023-04-08T06:02:09;95129.78;;;9.22;nan
10832;BME280;5469;48.574;8.768;2023-04-08T06:04:43;95135.63;;;9.24;nan
10832;BME280;5469;48.574;8.768;2023-04-08T06:07:17;95138.06;;;9.35;nan
10832;BME280;5469;48.574;8.768;2023-04-08T06:09:51;95130.88;;;9.31;nan
10832;BME280;5469;48.574;8.768;2023-04-08T06:12:24;95145.19;;;9.35;nan
10832;BME280;5469;48.574;8.768;2023-04-08T06:14:57;95135.16;;;9.37;nan
10832;BME280;5469;48.574;8.768;2023-04-08T06:17:30;95134.00;;;9.23;nan
10832;BME280;5469;48.574;8.768;2023-04-08T06:20:07;95132.50;;;9.32;nan
10832;BME280;5469;48.574;8.768;2023-04-08T06:22:41;95139.69;;;9.47;nan
10832;BME280;5469;48.574;8.768;2023-04-08T06:25:14;95144.72;;;9.43;nan
10832;BME280;5469;48.574;8.768;2023-04-08T06:27:48;95145.38;;;9.71;nan
10832;BME280;5469;48.574;8.768;2023-04-08T06:30:21;95145.59;;;9.64;nan
10832;BME280;5469;48.574;8.768;2023-04-08T06:32:54;95145.84;;;9.57;nan
10832;BME280;5469;48.574;8.768;2023-04-08T06:35:29;95146.44;;;9.75;nan
10832;BME280;5469;48.574;8.768;2023-04-08T06:38:03;95156.13;;;9.54;nan
10832;BME280;5469;48.574;8.768;2023-04-08T06:40:37;95148.53;;;9.62;nan
10832;BME280;5469;48.574;8.768;2023-04-08T06:43:10;95138.00;;;9.83;nan
10832;BME280;5469;48.574;8.768;2023-04-08T06:45:44;95160.31;;;10.02;nan
10832;BME280;5469;48.574;8.768;2023-04-08T06:48:17;95156.84;;;9.92;nan
10832;BME280;5469;48.574;8.768;2023-04-08T06:50:53;95160.13;;;9.56;nan
10832;BME280;5469;48.574;8.768;2023-04-08T06:53:27;95157.84;;;9.85;nan
10832;BME280;5469;48.574;8.768;2023-04-08T06:56:02;95160.69;;;9.63;nan
10832;BME280;5469;48.574;8.768;2023-04-08T06:58:35;95165.03;;;9.90;nan
10832;BME280;5469;48.574;8.768;2023-04-08T07:01:09;95167.03;;;9.57;nan
10832;BME280;5469;48.574;8.768;2023-04-08T07:03:42;95165.50;;;9.77;nan
10832;BME280;5469;48.574;8.768;2023-04-08T07:06:17;95169.75;;;9.73;nan
10832;BME280;5469;48.574;8.768;2023-04-08T07:08:50;95168.19;;;9.82;nan
10832;BME280;5469;48.574;8.768;2023-04-08T07:11:24;95168.78;;;9.99;nan
10832;BME280;5469;48.574;8.768;2023-04-08T07:13:57;95169.59;;;10.10;nan
10832;BME280;5469;48.574;8.768;2023-04-08T07:16:31;95173.31;;;10.09;nan
10832;BME280;5469;48.574;8.768;2023-04-08T07:19:04;95180.91;;;9.90;nan
10832;BME280;5469;48.574;8.768;2023-04-08T07:21:39;95170.13;;;10.02;nan
10832;BME280;5469;48.574;8.768;2023-04-08T07:24:12;95178.84;;;9.97;nan
10832;BME280;5469;48.574;8.768;2023-04-08T07:26:46;95185.66;;;9.83;nan
10832;BME280;5469;48.574;8.768;2023-04-08T07:29:19;95189.88;;;9.79;nan
10832;BME280;5469;48.574;8.768;2023-04-08T07:31:53;95187.88;;;10.01;nan
10832;BME280;5469;48.574;8.768;2023-04-08T07:34:26;95185.75;;;10.09;nan
10832;BME280;5469;48.574;8.768;2023-04-08T07:37:01;95189.47;;;10.13;nan
10832;BME280;5469;48.574;8.768;2023-04-08T07:39:35;95186.16;;;10.38;nan
10832;BME280;5469;48.574;8.768;2023-04-08T07:42:08;95185.59;;;10.31;nan
10832;BME280;5469;48.574;8.768;2023-04-08T07:44:42;95184.34;;;10.74;nan
10832;BME280;5469;48.574;8.768;2023-04-08T07:47:15;95190.69;;;10.68;nan
10832;BME280;5469;48.574;8.768;2023-04-08T07:49:49;95194.44;;;10.87;nan
10832;BME280;5469;48.574;8.768;2023-04-08T07:52:23;95184.88;;;11.02;nan
10832;BME280;5469;48.574;8.768;2023-04-08T07:54:57;95186.47;;;11.03;nan
10832;BME280;5469;48.574;8.768;2023-04-08T07:57:30;95197.31;;;10.76;nan
10832;BME280;5469;48.574;8.768;2023-04-08T08:00:05;95196.53;;;10.75;nan
10832;BME280;5469;48.574;8.768;2023-04-08T08:02:38;95197.59;;;10.69;nan
10832;BME280;5469;48.574;8.768;2023-04-08T08:05:12;95206.47;;;10.27;nan
10832;BME280;5469;48.574;8.768;2023-04-08T08:07:47;95203.06;;;10.32;nan
10832;BME280;5469;48.574;8.768;2023-04-08T08:10:21;95210.25;;;10.36;nan
10832;BME280;5469;48.574;8.768;2023-04-08T08:12:54;95213.44;;;10.43;nan
10832;BME280;5469;48.574;8.768;2023-04-08T08:15:28;95216.59;;;10.30;nan
10832;BME280;5469;48.574;8.768;2023-04-08T08:18:01;95214.78;;;10.46;nan
10832;BME280;5469;48.574;8.768;2023-04-08T08:20:34;95213.16;;;10.45;nan
10832;BME280;5469;48.574;8.768;2023-04-08T08:23:09;95210.84;;;10.64;nan
10832;BME280;5469;48.574;8.768;2023-04-08T08:25:43;95217.13;;;10.42;nan
10832;BME280;5469;48.574;8.768;2023-04-08T08:28:16;95223.66;;;10.24;nan
10832;BME280;5469;48.574;8.768;2023-04-08T08:30:49;95226.13;;;10.36;nan
10832;BME280;5469;48.574;8.768;2023-04-08T08:33:23;95213.50;;;10.69;nan
10832;BME280;5469;48.574;8.768;2023-04-08T08:35:57;95219.34;;;11.07;nan
10832;BME280;5469;48.574;8.768;2023-04-08T08:38:32;95216.69;;;11.37;nan
10832;BME280;5469;48.574;8.768;2023-04-08T08:41:06;95219.84;;;11.55;nan
10832;BME280;5469;48.574;8.768;2023-04-08T08:43:39;95214.25;;;11.62;nan
10832;BME280;5469;48.574;8.768;2023-04-08T08:46:15;95224.38;;;11.59;nan
10832;BME280;5469;48.574;8.768;2023-04-08T08:48:49;95234.72;;;11.41;nan
10832;BME280;5469;48.574;8.768;2023-04-08T08:51:23;95237.13;;;11.01;nan
10832;BME280;5469;48.574;8.768;2023-04-08T08:54:01;95244.31;;;11.26;nan
10832;BME280;5469;48.574;8.768;2023-04-08T08:56:34;95234.72;;;11.30;nan
10832;BME280;5469;48.574;8.768;2023-04-08T08:59:08;95233.88;;;11.86;nan
10832;BME280;5469;48.574;8.768;2023-04-08T09:01:42;95234.63;;;12.02;nan
10832;BME280;5469;48.574;8.768;2023-04-08T09:04:16;95238.97;;;11.57;nan
10832;BME280;5469;48.574;8.768;2023-04-08T09:07:08;95235.16;;;12.09;nan
10832;BME280;5469;48.574;8.768;2023-04-08T09:09:49;95238.22;;;12.32;nan
10832;BME280;5469;48.574;8.768;2023-04-08T09:12:24;95234.47;;;12.43;nan
10832;BME280;5469;48.574;8.768;2023-04-08T09:15:05;95238.72;;;12.39;nan
10832;BME280;5469;48.574;8.768;2023-04-08T09:17:39;95238.94;;;12.53;nan
10832;BME280;5469;48.574;8.768;2023-04-08T09:20:13;95236.31;;;12.92;nan
10832;BME280;5469;48.574;8.768;2023-04-08T09:23:00;95239.47;;;12.94;nan
10832;BME280;5469;48.574;8.768;2023-04-08T09:25:35;95237.00;;;12.68;nan
10832;BME280;5469;48.574;8.768;2023-04-08T09:28:18;95240.28;;;12.95;nan
10832;BME280;5469;48.574;8.768;2023-04-08T09:30:52;95244.91;;;13.52;nan
10832;BME280;5469;48.574;8.768;2023-04-08T09:33:29;95242.81;;;13.49;nan
10832;BME280;5469;48.574;8.768;2023-04-08T09:36:02;95245.50;;;13.49;nan
10832;BME280;5469;48.574;8.768;2023-04-08T09:38:36;95242.59;;;13.06;nan
10832;BME280;5469;48.574;8.768;2023-04-08T09:41:12;95244.53;;;13.35;nan
10832;BME280;5469;48.574;8.768;2023-04-08T09:43:48;95242.06;;;13.73;nan
10832;BME280;5469;48.574;8.768;2023-04-08T09:46:25;95245.88;;;13.91;nan
10832;BME280;5469;48.574;8.768;2023-04-08T09:49:04;95238.53;;;14.07;nan
10832;BME280;5469;48.574;8.768;2023-04-08T09:51:43;95239.09;;;14.04;nan
10832;BME280;5469;48.574;8.768;2023-04-08T09:54:20;95245.16;;;14.52;nan
10832;BME280;5469;48.574;8.768;2023-04-08T09:57:00;95248.47;;;15.06;nan
10832;BME280;5469;48.574;8.768;2023-04-08T09:59:35;95241.22;;;15.58;nan
10832;BME280;5469;48.574;8.768;2023-04-08T10:02:10;95248.56;;;15.34;nan
10832;BME280;5469;48.574;8.768;2023-04-08T10:04:49;95246.88;;;14.86;nan
10832;BME280;5469;48.574;8.768;2023-04-08T10:07:24;95242.13;;;15.67;nan
10832;BME280;5469;48.574;8.768;2023-04-08T10:09:58;95243.69;;;16.29;nan
10832;BME280;5469;48.574;8.768;2023-04-08T10:12:35;95250.69;;;15.69;nan
10832;BME280;5469;48.574;8.768;2023-04-08T10:15:22;95250.53;;;15.09;nan
10832;BME280;5469;48.574;8.768;2023-04-08T10:18:31;95247.53;;;16.78;nan
10832;BME280;5469;48.574;8.768;2023-04-08T10:21:30;95242.97;;;16.78;nan
10832;BME280;5469;48.574;8.768;2023-04-08T10:24:09;95240.22;;;17.29;nan
10832;BME280;5469;48.574;8.768;2023-04-08T10:26:43;95236.88;;;17.23;nan
10832;BME280;5469;48.574;8.768;2023-04-08T10:29:42;95234.06;;;17.06;nan
10832;BME280;5469;48.574;8.768;2023-04-08T10:32:29;95234.53;;;16.85;nan
10832;BME280;5469;48.574;8.768;2023-04-08T10:35:03;95236.50;;;17.16;nan
10832;BME280;5469;48.574;8.768;2023-04-08T10:37:36;95226.66;;;17.02;nan
10832;BME280;5469;48.574;8.768;2023-04-08T10:40:17;95228.72;;;17.06;nan
10832;BME280;5469;48.574;8.768;2023-04-08T10:42:53;95232.66;;;16.72;nan
10832;BME280;5469;48.574;8.768;2023-04-08T10:45:28;95239.63;;;16.45;nan
10832;BME280;5469;48.574;8.768;2023-04-08T10:48:12;95250.53;;;15.93;nan
10832;BME280;5469;48.574;8.768;2023-04-08T10:50:51;95236.66;;;16.33;nan
10832;BME280;5469;48.574;8.768;2023-04-08T10:53:27;95250.13;;;16.55;nan
10832;BME280;5469;48.574;8.768;2023-04-08T10:56:04;95234.28;;;16.45;nan
10832;BME280;5469;48.574;8.768;2023-04-08T10:58:47;95245.75;;;16.59;nan
10832;BME280;5469;48.574;8.768;2023-04-08T11:01:22;95237.81;;;16.54;nan
10832;BME280;5469;48.574;8.768;2023-04-08T11:03:57;95242.50;;;16.35;nan
10832;BME280;5469;48.574;8.768;2023-04-08T11:06:31;95241.09;;;16.79;nan
10832;BME280;5469;48.574;8.768;2023-04-08T11:09:04;95235.22;;;16.77;nan
10832;BME280;5469;48.574;8.768;2023-04-08T11:11:37;95233.38;;;16.36;nan
10832;BME280;5469;48.574;8.768;2023-04-08T11:14:11;95236.94;;;15.90;nan
10832;BME280;5469;48.574;8.768;2023-04-08T11:16:46;95235.09;;;15.90;nan
10832;BME280;5469;48.574;8.768;2023-04-08T11:19:20;95245.00;;;15.38;nan
10832;BME280;5469;48.574;8.768;2023-04-08T11:21:53;95237.16;;;16.07;nan
10832;BME280;5469;48.574;8.768;2023-04-08T11:24:27;95239.34;;;15.59;nan
10832;BME280;5469;48.574;8.768;2023-04-08T11:27:01;95232.31;;;16.37;nan
10832;BME280;5469;48.574;8.768;2023-04-08T11:29:35;95234.34;;;15.85;nan
10832;BME280;5469;48.574;8.768;2023-04-08T11:32:10;95235.19;;;15.66;nan
10832;BME280;5469;48.574;8.768;2023-04-08T11:34:44;95237.88;;;15.66;nan
10832;BME280;5469;48.574;8.768;2023-04-08T11:37:19;95236.09;;;15.29;nan
10832;BME280;5469;48.574;8.768;2023-04-08T11:39:54;95239.44;;;15.21;nan
10832;BME280;5469;48.574;8.768;2023-04-08T11:42:29;95245.66;;;14.35;nan
10832;BME280;5469;48.574;8.768;2023-04-08T11:45:09;95241.41;;;14.77;nan
10832;BME280;5469;48.574;8.768;2023-04-08T11:47:45;95239.69;;;14.43;nan
10832;BME280;5469;48.574;8.768;2023-04-08T11:50:22;95239.88;;;14.90;nan
10832;BME280;5469;48.574;8.768;2023-04-08T11:52:56;95240.03;;;14.61;nan
10832;BME280;5469;48.574;8.768;2023-04-08T11:55:31;95241.66;;;13.85;nan
10832;BME280;5469;48.574;8.768;2023-04-08T11:58:05;95241.19;;;14.07;nan
10832;BME280;5469;48.574;8.768;2023-04-08T12:00:38;95241.59;;;14.19;nan
10832;BME280;5469;48.574;8.768;2023-04-08T12:03:13;95245.94;;;14.10;nan
10832;BME280;5469;48.574;8.768;2023-04-08T12:05:47;95249.50;;;13.76;nan
10832;BME280;5469;48.574;8.768;2023-04-08T12:08:20;95248.50;;;13.96;nan
10832;BME280;5469;48.574;8.768;2023-04-08T12:10:54;95247.63;;;14.01;nan
10832;BME280;5469;48.574;8.768;2023-04-08T12:13:28;95248.25;;;13.92;nan
10832;BME280;5469;48.574;8.768;2023-04-08T12:16:02;95248.59;;;13.86;nan
10832;BME280;5469;48.574;8.768;2023-04-08T12:18:37;95246.44;;;13.59;nan
10832;BME280;5469;48.574;8.768;2023-04-08T12:21:10;95250.53;;;13.80;nan
10832;BME280;5469;48.574;8.768;2023-04-08T12:23:43;95250.06;;;14.21;nan
10832;BME280;5469;48.574;8.768;2023-04-08T12:26:17;95247.56;;;14.06;nan
10832;BME280;5469;48.574;8.768;2023-04-08T12:28:50;95252.78;;;13.68;nan
10832;BME280;5469;48.574;8.768;2023-04-08T12:31:24;95250.28;;;13.76;nan
10832;BME280;5469;48.574;8.768;2023-04-08T12:34:00;95246.56;;;13.77;nan
10832;BME280;5469;48.574;8.768;2023-04-08T12:36:33;95249.50;;;13.76;nan
10832;BME280;5469;48.574;8.768;2023-04-08T12:39:07;95254.16;;;13.26;nan
10832;BME280;5469;48.574;8.768;2023-04-08T12:41:40;95246.22;;;13.84;nan
10832;BME280;5469;48.574;8.768;2023-04-08T12:44:13;95241.91;;;13.88;nan
10832;BME280;5469;48.574;8.768;2023-04-08T12:46:47;95245.34;;;13.65;nan
10832;BME280;5469;48.574;8.768;2023-04-08T12:49:22;95236.22;;;13.71;nan
10832;BME280;5469;48.574;8.768;2023-04-08T12:51:55;95240.31;;;13.87;nan
10832;BME280;5469;48.574;8.768;2023-04-08T12:54:28;95250.53;;;13.80;nan
10832;BME280;5469;48.574;8.768;2023-04-08T12:57:02;95246.88;;;13.71;nan
10832;BME280;5469;48.574;8.768;2023-04-08T12:59:36;95244.84;;;13.63;nan
10832;BME280;5469;48.574;8.768;2023-04-08T13:02:11;95250.34;;;13.42;nan
10832;BME280;5469;48.574;8.768;2023-04-08T13:04:45;95247.63;;;13.47;nan
10832;BME280;5469;48.574;8.768;2023-04-08T13:07:20;95246.41;;;13.64;nan
10832;BME280;5469;48.574;8.768;2023-04-08T13:09:54;95248.56;;;13.62;nan
10832;BME280;5469;48.574;8.768;2023-04-08T13:12:28;95242.91;;;13.68;nan
10832;BME280;5469;48.574;8.768;2023-04-08T13:15:01;95242.84;;;13.73;nan
10832;BME280;5469;48.574;8.768;2023-04-08T13:17:35;95245.63;;;13.63;nan
10832;BME280;5469;48.574;8.768;2023-04-08T13:20:10;95241.91;;;13.59;nan
10832;BME280;5469;48.574;8.768;2023-04-08T13:22:43;95243.19;;;13.67;nan
10832;BME280;5469;48.574;8.768;2023-04-08T13:25:17;95243.75;;;13.64;nan
10832;BME280;5469;48.574;8.768;2023-04-08T13:27:50;95243.69;;;13.69;nan
10832;BME280;5469;48.574;8.768;2023-04-08T13:30:23;95241.44;;;13.81;nan
10832;BME280;5469;48.574;8.768;2023-04-08T13:32:57;95235.19;;;13.67;nan
10832;BME280;5469;48.574;8.768;2023-04-08T13:35:32;95238.16;;;13.89;nan
10832;BME280;5469;48.574;8.768;2023-04-08T13:38:05;95238.19;;;12.86;nan
10832;BME280;5469;48.574;8.768;2023-04-08T13:40:38;95247.16;;;13.40;nan
10832;BME280;5469;48.574;8.768;2023-04-08T13:43:12;95240.13;;;13.54;nan
10832;BME280;5469;48.574;8.768;2023-04-08T13:45:45;95246.44;;;13.29;nan
10832;BME280;5469;48.574;8.768;2023-04-08T13:48:19;95239.25;;;13.59;nan
10832;BME280;5469;48.574;8.768;2023-04-08T13:50:54;95238.88;;;13.71;nan
10832;BME280;5469;48.574;8.768;2023-04-08T13:53:27;95242.59;;;13.75;nan
10832;BME280;5469;48.574;8.768;2023-04-08T13:56:01;95239.63;;;14.01;nan
10832;BME280;5469;48.574;8.768;2023-04-08T13:58:34;95236.09;;;13.57;nan
10832;BME280;5469;48.574;8.768;2023-04-08T14:01:08;95236.09;;;14.29;nan
10832;BME280;5469;48.574;8.768;2023-04-08T14:03:41;95242.13;;;14.64;nan
10832;BME280;5469;48.574;8.768;2023-04-08T14:06:16;95237.94;;;14.10;nan
10832;BME280;5469;48.574;8.768;2023-04-08T14:08:50;95232.56;;;13.62;nan
10832;BME280;5469;48.574;8.768;2023-04-08T14:11:23;95248.34;;;13.82;nan
10832;BME280;5469;48.574;8.768;2023-04-08T14:13:57;95242.59;;;13.99;nan
10832;BME280;5469;48.574;8.768;2023-04-08T14:16:30;95239.63;;;14.01;nan
10832;BME280;5469;48.574;8.768;2023-04-08T14:19:04;95239.16;;;13.69;nan